sensor_id;sensor_type;location;lat;lon;timestamp;temperature;humidity
20442;DHT22;10380;52.102;20.614;2023-02-14T00:01:22;5.00;99.90
20442;DHT22;10380;52.102;20.614;2023-02-14T00:03:50;5.00;99.90
20442;DHT22;10380;52.102;20.614;2023-02-14T00:06:17;5.00;99.90
20442;DHT22;10380;52.102;20.614;2023-02-14T00:08:44;5.00;99.90
20442;DHT22;10380;52.102;20.614;2023-02-14T00:11:12;5.00;99.90
20442;DHT22;10380;52.102;20.614;2023-02-14T00:13:39;4.90;99.90
20442;DHT22;10380;52.102;20.614;2023-02-14T00:16:26;5.00;99.90
20442;DHT22;10380;52.102;20.614;2023-02-14T00:18:53;5.00;99.90
20442;DHT22;10380;52.102;20.614;2023-02-14T00:21:35;5.00;99.90
20442;DHT22;10380;52.102;20.614;2023-02-14T00:24:08;4.90;99.90
20442;DHT22;10380;52.102;20.614;2023-02-14T00:26:35;4.90;99.90
20442;DHT22;10380;52.102;20.614;2023-02-14T00:29:08;4.90;99.90
20442;DHT22;10380;52.102;20.614;2023-02-14T00:31:36;4.90;99.90
20442;DHT22;10380;52.102;20.614;2023-02-14T00:34:04;4.90;99.90
20442;DHT22;10380;52.102;20.614;2023-02-14T00:36:33;4.90;99.90
20442;DHT22;10380;52.102;20.614;2023-02-14T00:39:07;4.90;99.90
20442;DHT22;10380;52.102;20.614;2023-02-14T00:41:34;4.90;99.90
20442;DHT22;10380;52.102;20.614;2023-02-14T00:44:02;4.90;99.90
20442;DHT22;10380;52.102;20.614;2023-02-14T00:46:30;4.90;99.90
20442;DHT22;10380;52.102;20.614;2023-02-14T00:48:58;4.90;99.90
20442;DHT22;10380;52.102;20.614;2023-02-14T00:51:25;4.80;99.90
20442;DHT22;10380;52.102;20.614;2023-02-14T00:53:54;4.80;99.90
20442;DHT22;10380;52.102;20.614;2023-02-14T00:56:22;4.80;99.90
20442;DHT22;10380;52.102;20.614;2023-02-14T00:58:49;4.80;99.90
20442;DHT22;10380;52.102;20.614;2023-02-14T01:01:16;4.80;99.90
20442;DHT22;10380;52.102;20.614;2023-02-14T01:03:44;4.80;99.90
20442;DHT22;10380;52.102;20.614;2023-02-14T01:06:11;4.70;99.90
20442;DHT22;10380;52.102;20.614;2023-02-14T01:08:38;4.70;99.90
20442;DHT22;10380;52.102;20.614;2023-02-14T01:11:12;4.70;99.90
20442;DHT22;10380;52.102;20.614;2023-02-14T01:13:41;4.70;99.90
20442;DHT22;10380;52.102;20.614;2023-02-14T01:16:11;4.70;99.90
20442;DHT22;10380;52.102;20.614;2023-02-14T01:18:39;4.70;99.90
20442;DHT22;10380;52.102;20.614;2023-02-14T01:23:37;4.70;99.90
20442;DHT22;10380;52.102;20.614;2023-02-14T01:26:05;4.60;99.90
20442;DHT22;10380;52.102;20.614;2023-02-14T01:28:33;4.70;99.90
20442;DHT22;10380;52.102;20.614;2023-02-14T01:33:41;4.60;99.90
20442;DHT22;10380;52.102;20.614;2023-02-14T01:36:28;4.80;99.90
20442;DHT22;10380;52.102;20.614;2023-02-14T01:38:58;4.60;99.90
20442;DHT22;10380;52.102;20.614;2023-02-14T01:41:27;4.50;99.90
20442;DHT22;10380;52.102;20.614;2023-02-14T01:44:49;4.50;99.90
20442;DHT22;10380;52.102;20.614;2023-02-14T01:46:54;4.50;99.90
20442;DHT22;10380;52.102;20.614;2023-02-14T01:49:28;4.50;99.90
20442;DHT22;10380;52.102;20.614;2023-02-14T01:52:09;4.50;99.90
20442;DHT22;10380;52.102;20.614;2023-02-14T01:54:42;4.50;99.90
20442;DHT22;10380;52.102;20.614;2023-02-14T01:57:12;4.50;99.90
20442;DHT22;10380;52.102;20.614;2023-02-14T01:59:45;4.50;99.90
20442;DHT22;10380;52.102;20.614;2023-02-14T02:02:14;4.50;99.90
20442;DHT22;10380;52.102;20.614;2023-02-14T02:04:52;4.40;99.90
20442;DHT22;10380;52.102;20.614;2023-02-14T02:07:23;4.40;99.90
20442;DHT22;10380;52.102;20.614;2023-02-14T02:10:00;4.40;99.90
20442;DHT22;10380;52.102;20.614;2023-02-14T02:12:28;4.40;99.90
20442;DHT22;10380;52.102;20.614;2023-02-14T02:14:57;4.30;99.90
20442;DHT22;10380;52.102;20.614;2023-02-14T02:23:11;4.30;99.90
20442;DHT22;10380;52.102;20.614;2023-02-14T02:25:58;4.30;99.90
20442;DHT22;10380;52.102;20.614;2023-02-14T02:47:41;4.20;99.90
20442;DHT22;10380;52.102;20.614;2023-02-14T02:50:52;4.20;99.90
20442;DHT22;10380;52.102;20.614;2023-02-14T02:56:54;4.10;99.90
20442;DHT22;10380;52.102;20.614;2023-02-14T02:59:33;4.10;99.90
20442;DHT22;10380;52.102;20.614;2023-02-14T03:02:24;4.10;99.90
20442;DHT22;10380;52.102;20.614;2023-02-14T03:04:56;4.10;99.90
20442;DHT22;10380;52.102;20.614;2023-02-14T03:07:33;4.10;99.90
20442;DHT22;10380;52.102;20.614;2023-02-14T03:10:07;4.10;99.90
20442;DHT22;10380;52.102;20.614;2023-02-14T03:21:30;4.00;99.90
20442;DHT22;10380;52.102;20.614;2023-02-14T03:24:08;4.00;99.90
20442;DHT22;10380;52.102;20.614;2023-02-14T03:27:05;4.00;99.90
20442;DHT22;10380;52.102;20.614;2023-02-14T03:33:00;3.90;99.90
20442;DHT22;10380;52.102;20.614;2023-02-14T03:38:07;3.90;99.90
20442;DHT22;10380;52.102;20.614;2023-02-14T03:40:51;3.90;99.90
20442;DHT22;10380;52.102;20.614;2023-02-14T03:43:33;3.90;99.90
20442;DHT22;10380;52.102;20.614;2023-02-14T03:46:17;3.90;99.90
20442;DHT22;10380;52.102;20.614;2023-02-14T03:48:50;3.90;99.90
20442;DHT22;10380;52.102;20.614;2023-02-14T03:51:20;3.80;99.90
20442;DHT22;10380;52.102;20.614;2023-02-14T03:53:51;4.60;99.90
20442;DHT22;10380;52.102;20.614;2023-02-14T03:56:36;3.70;99.90
20442;DHT22;10380;52.102;20.614;2023-02-14T03:59:15;3.70;99.90
20442;DHT22;10380;52.102;20.614;2023-02-14T04:04:40;3.70;99.90
20442;DHT22;10380;52.102;20.614;2023-02-14T04:07:19;3.70;99.90
20442;DHT22;10380;52.102;20.614;2023-02-14T04:09:48;3.70;99.90
20442;DHT22;10380;52.102;20.614;2023-02-14T04:12:17;3.70;99.90
20442;DHT22;10380;52.102;20.614;2023-02-14T04:14:58;3.70;99.90
20442;DHT22;10380;52.102;20.614;2023-02-14T04:17:24;3.70;99.90
20442;DHT22;10380;52.102;20.614;2023-02-14T04:20:10;3.70;99.90
20442;DHT22;10380;52.102;20.614;2023-02-14T04:22:38;3.70;99.90
20442;DHT22;10380;52.102;20.614;2023-02-14T04:25:06;3.60;99.90
20442;DHT22;10380;52.102;20.614;2023-02-14T04:27:33;3.60;99.90
20442;DHT22;10380;52.102;20.614;2023-02-14T04:30:00;3.60;99.90
20442;DHT22;10380;52.102;20.614;2023-02-14T04:32:27;3.60;99.90
20442;DHT22;10380;52.102;20.614;2023-02-14T04:34:55;3.60;99.90
20442;DHT22;10380;52.102;20.614;2023-02-14T04:37:22;3.60;99.90
20442;DHT22;10380;52.102;20.614;2023-02-14T04:39:52;3.60;99.90
20442;DHT22;10380;52.102;20.614;2023-02-14T04:42:19;3.60;99.90
20442;DHT22;10380;52.102;20.614;2023-02-14T04:44:47;3.60;99.90
20442;DHT22;10380;52.102;20.614;2023-02-14T04:47:14;3.50;99.90
20442;DHT22;10380;52.102;20.614;2023-02-14T04:49:41;3.50;99.90
20442;DHT22;10380;52.102;20.614;2023-02-14T04:52:09;3.50;99.90
20442;DHT22;10380;52.102;20.614;2023-02-14T04:54:36;3.60;99.90
20442;DHT22;10380;52.102;20.614;2023-02-14T04:57:03;3.50;99.90
20442;DHT22;10380;52.102;20.614;2023-02-14T04:59:29;3.50;99.90
20442;DHT22;10380;52.102;20.614;2023-02-14T05:01:56;3.50;99.90
20442;DHT22;10380;52.102;20.614;2023-02-14T05:04:24;3.50;99.90
20442;DHT22;10380;52.102;20.614;2023-02-14T05:06:50;3.50;99.90
20442;DHT22;10380;52.102;20.614;2023-02-14T05:09:17;3.50;99.90
20442;DHT22;10380;52.102;20.614;2023-02-14T05:11:44;3.50;99.90
20442;DHT22;10380;52.102;20.614;2023-02-14T05:14:11;3.40;99.90
20442;DHT22;10380;52.102;20.614;2023-02-14T05:16:39;3.40;99.90
20442;DHT22;10380;52.102;20.614;2023-02-14T05:19:07;3.40;99.90
20442;DHT22;10380;52.102;20.614;2023-02-14T05:21:34;3.40;99.90
20442;DHT22;10380;52.102;20.614;2023-02-14T05:24:01;3.40;99.90
20442;DHT22;10380;52.102;20.614;2023-02-14T05:26:28;3.40;99.90
20442;DHT22;10380;52.102;20.614;2023-02-14T05:28:55;3.40;99.90
20442;DHT22;10380;52.102;20.614;2023-02-14T05:31:22;3.40;99.90
20442;DHT22;10380;52.102;20.614;2023-02-14T05:33:49;3.30;99.90
20442;DHT22;10380;52.102;20.614;2023-02-14T05:36:16;3.40;99.90
20442;DHT22;10380;52.102;20.614;2023-02-14T05:38:43;3.40;99.90
20442;DHT22;10380;52.102;20.614;2023-02-14T05:41:10;3.30;99.90
20442;DHT22;10380;52.102;20.614;2023-02-14T05:43:37;3.30;99.90
20442;DHT22;10380;52.102;20.614;2023-02-14T05:46:04;3.30;99.90
20442;DHT22;10380;52.102;20.614;2023-02-14T05:48:31;3.30;99.90
20442;DHT22;10380;52.102;20.614;2023-02-14T05:51:08;3.30;99.90
20442;DHT22;10380;52.102;20.614;2023-02-14T05:53:35;3.30;99.90
20442;DHT22;10380;52.102;20.614;2023-02-14T05:56:03;3.30;99.90
20442;DHT22;10380;52.102;20.614;2023-02-14T05:58:30;3.30;99.90
20442;DHT22;10380;52.102;20.614;2023-02-14T06:00:59;3.30;99.90
20442;DHT22;10380;52.102;20.614;2023-02-14T06:03:27;3.30;99.90
20442;DHT22;10380;52.102;20.614;2023-02-14T06:05:54;3.30;99.90
20442;DHT22;10380;52.102;20.614;2023-02-14T06:08:21;3.30;99.90
20442;DHT22;10380;52.102;20.614;2023-02-14T06:10:48;3.30;99.90
20442;DHT22;10380;52.102;20.614;2023-02-14T06:13:15;4.80;99.90
20442;DHT22;10380;52.102;20.614;2023-02-14T06:15:42;3.30;99.90
20442;DHT22;10380;52.102;20.614;2023-02-14T06:18:08;3.30;99.90
20442;DHT22;10380;52.102;20.614;2023-02-14T06:20:35;3.60;99.90
20442;DHT22;10380;52.102;20.614;2023-02-14T06:23:02;3.30;99.90
20442;DHT22;10380;52.102;20.614;2023-02-14T06:25:29;3.30;99.90
20442;DHT22;10380;52.102;20.614;2023-02-14T06:27:57;3.30;99.90
20442;DHT22;10380;52.102;20.614;2023-02-14T06:30:24;3.30;99.90
20442;DHT22;10380;52.102;20.614;2023-02-14T06:32:51;3.30;99.90
20442;DHT22;10380;52.102;20.614;2023-02-14T06:35:18;3.30;99.90
20442;DHT22;10380;52.102;20.614;2023-02-14T06:37:45;3.30;99.90
20442;DHT22;10380;52.102;20.614;2023-02-14T06:40:12;3.30;99.90
20442;DHT22;10380;52.102;20.614;2023-02-14T06:42:39;3.30;99.90
20442;DHT22;10380;52.102;20.614;2023-02-14T06:45:06;3.30;99.90
20442;DHT22;10380;52.102;20.614;2023-02-14T06:47:33;3.40;99.90
20442;DHT22;10380;52.102;20.614;2023-02-14T06:50:01;3.40;99.90
20442;DHT22;10380;52.102;20.614;2023-02-14T06:52:31;3.40;99.90
20442;DHT22;10380;52.102;20.614;2023-02-14T06:54:58;3.40;99.90
20442;DHT22;10380;52.102;20.614;2023-02-14T06:57:25;3.40;99.90
20442;DHT22;10380;52.102;20.614;2023-02-14T06:59:52;3.30;99.90
20442;DHT22;10380;52.102;20.614;2023-02-14T07:02:19;3.30;99.90
20442;DHT22;10380;52.102;20.614;2023-02-14T07:04:49;3.30;99.90
20442;DHT22;10380;52.102;20.614;2023-02-14T07:07:15;3.30;99.90
20442;DHT22;10380;52.102;20.614;2023-02-14T07:09:42;3.20;99.90
20442;DHT22;10380;52.102;20.614;2023-02-14T07:12:09;3.20;99.90
20442;DHT22;10380;52.102;20.614;2023-02-14T07:14:36;3.20;99.90
20442;DHT22;10380;52.102;20.614;2023-02-14T07:17:02;3.30;99.90
20442;DHT22;10380;52.102;20.614;2023-02-14T07:19:29;3.20;99.90
20442;DHT22;10380;52.102;20.614;2023-02-14T07:21:56;3.20;99.90
20442;DHT22;10380;52.102;20.614;2023-02-14T07:24:23;3.20;99.90
20442;DHT22;10380;52.102;20.614;2023-02-14T07:26:49;3.20;99.90
20442;DHT22;10380;52.102;20.614;2023-02-14T07:29:16;3.30;99.90
20442;DHT22;10380;52.102;20.614;2023-02-14T07:31:43;3.30;99.90
20442;DHT22;10380;52.102;20.614;2023-02-14T07:34:10;3.30;99.90
20442;DHT22;10380;52.102;20.614;2023-02-14T07:36:37;3.30;99.90
20442;DHT22;10380;52.102;20.614;2023-02-14T07:39:04;3.30;99.90
20442;DHT22;10380;52.102;20.614;2023-02-14T07:41:31;3.30;99.90
20442;DHT22;10380;52.102;20.614;2023-02-14T07:43:58;3.30;99.90
20442;DHT22;10380;52.102;20.614;2023-02-14T07:46:25;3.40;99.90
20442;DHT22;10380;52.102;20.614;2023-02-14T07:51:19;3.40;99.90
20442;DHT22;10380;52.102;20.614;2023-02-14T07:53:46;3.40;99.90
20442;DHT22;10380;52.102;20.614;2023-02-14T07:56:14;4.50;99.90
20442;DHT22;10380;52.102;20.614;2023-02-14T07:58:40;3.40;99.90
20442;DHT22;10380;52.102;20.614;2023-02-14T08:01:08;3.40;99.90
20442;DHT22;10380;52.102;20.614;2023-02-14T08:03:34;3.40;99.90
20442;DHT22;10380;52.102;20.614;2023-02-14T08:06:01;3.30;99.90
20442;DHT22;10380;52.102;20.614;2023-02-14T08:08:30;3.30;99.90
20442;DHT22;10380;52.102;20.614;2023-02-14T08:10:57;3.30;99.90
20442;DHT22;10380;52.102;20.614;2023-02-14T08:13:25;3.30;99.90
20442;DHT22;10380;52.102;20.614;2023-02-14T08:15:52;3.30;99.90
20442;DHT22;10380;52.102;20.614;2023-02-14T08:18:33;3.30;99.90
20442;DHT22;10380;52.102;20.614;2023-02-14T08:21:00;3.30;99.90
20442;DHT22;10380;52.102;20.614;2023-02-14T08:23:28;3.40;99.90
20442;DHT22;10380;52.102;20.614;2023-02-14T08:25:55;3.40;99.90
20442;DHT22;10380;52.102;20.614;2023-02-14T08:28:23;3.40;99.90
20442;DHT22;10380;52.102;20.614;2023-02-14T08:30:50;3.40;99.90
20442;DHT22;10380;52.102;20.614;2023-02-14T08:33:18;3.40;99.90
20442;DHT22;10380;52.102;20.614;2023-02-14T08:38:12;3.30;99.90
20442;DHT22;10380;52.102;20.614;2023-02-14T08:40:39;3.30;99.90
20442;DHT22;10380;52.102;20.614;2023-02-14T08:43:09;3.80;99.90
20442;DHT22;10380;52.102;20.614;2023-02-14T08:45:36;3.30;99.90
20442;DHT22;10380;52.102;20.614;2023-02-14T08:48:06;3.40;99.90
20442;DHT22;10380;52.102;20.614;2023-02-14T08:50:34;3.40;99.90
20442;DHT22;10380;52.102;20.614;2023-02-14T08:53:08;3.40;99.90
20442;DHT22;10380;52.102;20.614;2023-02-14T08:55:35;3.40;99.90
20442;DHT22;10380;52.102;20.614;2023-02-14T08:58:03;3.40;99.90
20442;DHT22;10380;52.102;20.614;2023-02-14T09:00:31;3.50;99.90
20442;DHT22;10380;52.102;20.614;2023-02-14T09:02:59;3.50;99.90
20442;DHT22;10380;52.102;20.614;2023-02-14T09:05:26;3.50;99.90
20442;DHT22;10380;52.102;20.614;2023-02-14T09:07:53;3.50;99.90
20442;DHT22;10380;52.102;20.614;2023-02-14T09:10:22;3.50;99.90
20442;DHT22;10380;52.102;20.614;2023-02-14T09:12:50;3.50;99.90
20442;DHT22;10380;52.102;20.614;2023-02-14T09:15:17;3.50;99.90
20442;DHT22;10380;52.102;20.614;2023-02-14T09:17:44;3.50;99.90
20442;DHT22;10380;52.102;20.614;2023-02-14T09:20:12;3.50;99.90
20442;DHT22;10380;52.102;20.614;2023-02-14T09:22:39;3.50;99.90
20442;DHT22;10380;52.102;20.614;2023-02-14T09:25:06;3.50;99.90
20442;DHT22;10380;52.102;20.614;2023-02-14T09:27:33;3.50;99.90
20442;DHT22;10380;52.102;20.614;2023-02-14T09:30:00;3.50;99.90
20442;DHT22;10380;52.102;20.614;2023-02-14T09:32:27;3.50;99.90
20442;DHT22;10380;52.102;20.614;2023-02-14T09:34:55;3.50;99.90
20442;DHT22;10380;52.102;20.614;2023-02-14T09:37:40;3.50;99.90
20442;DHT22;10380;52.102;20.614;2023-02-14T09:40:25;3.50;99.90
20442;DHT22;10380;52.102;20.614;2023-02-14T09:42:58;3.50;99.90
20442;DHT22;10380;52.102;20.614;2023-02-14T09:45:29;3.60;99.90
20442;DHT22;10380;52.102;20.614;2023-02-14T09:48:33;3.60;99.90
20442;DHT22;10380;52.102;20.614;2023-02-14T09:51:04;3.70;99.90
20442;DHT22;10380;52.102;20.614;2023-02-14T09:53:35;3.70;99.90
20442;DHT22;10380;52.102;20.614;2023-02-14T09:56:07;3.70;99.90
20442;DHT22;10380;52.102;20.614;2023-02-14T10:01:28;3.80;99.90
20442;DHT22;10380;52.102;20.614;2023-02-14T10:04:32;3.70;99.90
20442;DHT22;10380;52.102;20.614;2023-02-14T10:07:24;3.70;99.90
20442;DHT22;10380;52.102;20.614;2023-02-14T10:15:35;3.70;99.90
20442;DHT22;10380;52.102;20.614;2023-02-14T10:20:57;3.70;99.90
20442;DHT22;10380;52.102;20.614;2023-02-14T10:23:40;3.80;99.90
20442;DHT22;10380;52.102;20.614;2023-02-14T10:26:18;3.70;99.90
20442;DHT22;10380;52.102;20.614;2023-02-14T10:28:49;3.80;99.90
20442;DHT22;10380;52.102;20.614;2023-02-14T10:31:44;3.80;99.90
20442;DHT22;10380;52.102;20.614;2023-02-14T10:56:42;4.00;99.90
20442;DHT22;10380;52.102;20.614;2023-02-14T11:01:45;4.00;99.90
20442;DHT22;10380;52.102;20.614;2023-02-14T11:04:14;4.00;99.90
20442;DHT22;10380;52.102;20.614;2023-02-14T11:06:42;4.00;99.90
20442;DHT22;10380;52.102;20.614;2023-02-14T11:09:09;4.00;99.90
20442;DHT22;10380;52.102;20.614;2023-02-14T11:11:52;4.00;99.90
20442;DHT22;10380;52.102;20.614;2023-02-14T11:14:29;4.00;99.90
20442;DHT22;10380;52.102;20.614;2023-02-14T11:16:59;4.00;99.90
20442;DHT22;10380;52.102;20.614;2023-02-14T11:19:31;4.10;99.90
20442;DHT22;10380;52.102;20.614;2023-02-14T11:22:02;4.10;99.90
20442;DHT22;10380;52.102;20.614;2023-02-14T11:24:35;4.10;99.90
20442;DHT22;10380;52.102;20.614;2023-02-14T11:32:08;4.20;99.90
20442;DHT22;10380;52.102;20.614;2023-02-14T11:34:37;4.20;99.90
20442;DHT22;10380;52.102;20.614;2023-02-14T11:39:51;4.20;99.90
20442;DHT22;10380;52.102;20.614;2023-02-14T11:42:39;4.20;99.90
20442;DHT22;10380;52.102;20.614;2023-02-14T11:45:26;4.30;99.90
20442;DHT22;10380;52.102;20.614;2023-02-14T11:48:17;4.30;99.90
20442;DHT22;10380;52.102;20.614;2023-02-14T11:53:46;4.20;99.90
20442;DHT22;10380;52.102;20.614;2023-02-14T11:56:16;4.20;99.90
20442;DHT22;10380;52.102;20.614;2023-02-14T12:01:19;4.20;99.90
20442;DHT22;10380;52.102;20.614;2023-02-14T12:03:48;4.30;99.90
20442;DHT22;10380;52.102;20.614;2023-02-14T12:06:29;4.30;99.90
20442;DHT22;10380;52.102;20.614;2023-02-14T12:12:03;4.40;99.90
20442;DHT22;10380;52.102;20.614;2023-02-14T12:14:32;4.40;99.90
20442;DHT22;10380;52.102;20.614;2023-02-14T12:22:36;4.40;99.90
20442;DHT22;10380;52.102;20.614;2023-02-14T12:25:13;4.50;99.90
20442;DHT22;10380;52.102;20.614;2023-02-14T12:28:00;4.40;99.90
20442;DHT22;10380;52.102;20.614;2023-02-14T12:30:32;4.40;99.90
20442;DHT22;10380;52.102;20.614;2023-02-14T12:32:59;4.40;99.90
20442;DHT22;10380;52.102;20.614;2023-02-14T12:41:22;4.50;99.90
20442;DHT22;10380;52.102;20.614;2023-02-14T13:03:12;4.60;99.90
20442;DHT22;10380;52.102;20.614;2023-02-14T13:12:00;4.60;99.90
20442;DHT22;10380;52.102;20.614;2023-02-14T13:14:45;4.70;99.90
20442;DHT22;10380;52.102;20.614;2023-02-14T13:17:29;4.70;99.90
20442;DHT22;10380;52.102;20.614;2023-02-14T13:22:47;4.70;99.90
20442;DHT22;10380;52.102;20.614;2023-02-14T13:25:26;4.70;99.90
20442;DHT22;10380;52.102;20.614;2023-02-14T13:27:59;4.70;99.90
20442;DHT22;10380;52.102;20.614;2023-02-14T13:30:31;4.70;99.90
20442;DHT22;10380;52.102;20.614;2023-02-14T13:33:37;4.70;99.90
20442;DHT22;10380;52.102;20.614;2023-02-14T13:36:02;4.80;99.90
20442;DHT22;10380;52.102;20.614;2023-02-14T13:38:30;4.80;99.90
20442;DHT22;10380;52.102;20.614;2023-02-14T13:40:59;4.80;99.90
20442;DHT22;10380;52.102;20.614;2023-02-14T13:43:58;4.90;99.90
20442;DHT22;10380;52.102;20.614;2023-02-14T13:49:29;4.90;99.90
20442;DHT22;10380;52.102;20.614;2023-02-14T13:51:59;4.90;99.90
20442;DHT22;10380;52.102;20.614;2023-02-14T13:54:33;4.90;99.90
20442;DHT22;10380;52.102;20.614;2023-02-14T14:02:49;4.90;99.90
20442;DHT22;10380;52.102;20.614;2023-02-14T14:08:36;4.90;99.90
20442;DHT22;10380;52.102;20.614;2023-02-14T14:13:58;4.90;99.90
20442;DHT22;10380;52.102;20.614;2023-02-14T14:16:30;4.90;99.90
20442;DHT22;10380;52.102;20.614;2023-02-14T14:22:00;5.00;99.90
20442;DHT22;10380;52.102;20.614;2023-02-14T14:24:34;5.00;99.90
20442;DHT22;10380;52.102;20.614;2023-02-14T14:27:14;5.00;99.90
20442;DHT22;10380;52.102;20.614;2023-02-14T14:35:03;5.00;99.90
20442;DHT22;10380;52.102;20.614;2023-02-14T14:37:33;5.00;99.90
20442;DHT22;10380;52.102;20.614;2023-02-14T14:40:03;5.00;99.90
20442;DHT22;10380;52.102;20.614;2023-02-14T14:42:38;5.00;99.90
20442;DHT22;10380;52.102;20.614;2023-02-14T14:45:22;5.00;99.90
20442;DHT22;10380;52.102;20.614;2023-02-14T14:47:51;5.00;99.90
20442;DHT22;10380;52.102;20.614;2023-02-14T14:50:28;5.00;99.90
20442;DHT22;10380;52.102;20.614;2023-02-14T14:53:06;5.00;99.90
20442;DHT22;10380;52.102;20.614;2023-02-14T14:55:38;5.00;99.90
20442;DHT22;10380;52.102;20.614;2023-02-14T14:58:39;4.90;99.90
20442;DHT22;10380;52.102;20.614;2023-02-14T15:01:10;4.90;99.90
20442;DHT22;10380;52.102;20.614;2023-02-14T15:03:38;4.90;99.90
20442;DHT22;10380;52.102;20.614;2023-02-14T15:06:16;4.90;99.90
20442;DHT22;10380;52.102;20.614;2023-02-14T15:08:43;4.90;99.90
20442;DHT22;10380;52.102;20.614;2023-02-14T15:11:27;4.90;99.90
20442;DHT22;10380;52.102;20.614;2023-02-14T15:14:20;4.90;99.90
20442;DHT22;10380;52.102;20.614;2023-02-14T15:16:58;5.00;99.90
20442;DHT22;10380;52.102;20.614;2023-02-14T15:19:32;4.90;99.90
20442;DHT22;10380;52.102;20.614;2023-02-14T15:22:04;4.90;99.90
20442;DHT22;10380;52.102;20.614;2023-02-14T15:24:31;4.90;99.90
20442;DHT22;10380;52.102;20.614;2023-02-14T15:27:01;4.90;99.90
20442;DHT22;10380;52.102;20.614;2023-02-14T15:29:31;4.90;99.90
20442;DHT22;10380;52.102;20.614;2023-02-14T15:32:00;4.80;99.90
20442;DHT22;10380;52.102;20.614;2023-02-14T15:34:33;4.90;99.90
20442;DHT22;10380;52.102;20.614;2023-02-14T15:37:04;4.80;99.90
20442;DHT22;10380;52.102;20.614;2023-02-14T15:39:46;4.80;99.90
20442;DHT22;10380;52.102;20.614;2023-02-14T15:45:29;4.80;99.90
20442;DHT22;10380;52.102;20.614;2023-02-14T15:48:05;4.80;99.90
20442;DHT22;10380;52.102;20.614;2023-02-14T15:50:43;4.80;99.90
20442;DHT22;10380;52.102;20.614;2023-02-14T15:55:46;4.80;99.90
20442;DHT22;10380;52.102;20.614;2023-02-14T15:58:23;4.80;99.90
20442;DHT22;10380;52.102;20.614;2023-02-14T16:00:52;4.80;99.90
20442;DHT22;10380;52.102;20.614;2023-02-14T16:03:22;4.80;99.90
20442;DHT22;10380;52.102;20.614;2023-02-14T16:05:49;4.80;99.90
20442;DHT22;10380;52.102;20.614;2023-02-14T16:11:26;4.70;99.90
20442;DHT22;10380;52.102;20.614;2023-02-14T16:13:52;4.80;99.90
20442;DHT22;10380;52.102;20.614;2023-02-14T16:16:19;4.80;99.90
20442;DHT22;10380;52.102;20.614;2023-02-14T16:18:49;4.70;99.90
20442;DHT22;10380;52.102;20.614;2023-02-14T16:26:40;4.70;99.90
20442;DHT22;10380;52.102;20.614;2023-02-14T16:29:12;4.80;99.90
20442;DHT22;10380;52.102;20.614;2023-02-14T16:31:47;4.80;99.90
20442;DHT22;10380;52.102;20.614;2023-02-14T16:34:35;4.70;99.90
20442;DHT22;10380;52.102;20.614;2023-02-14T16:37:06;4.80;99.90
20442;DHT22;10380;52.102;20.614;2023-02-14T16:39:34;4.80;99.90
20442;DHT22;10380;52.102;20.614;2023-02-14T16:42:02;4.70;99.90
20442;DHT22;10380;52.102;20.614;2023-02-14T16:44:31;4.80;99.90
20442;DHT22;10380;52.102;20.614;2023-02-14T16:47:00;4.80;99.90
20442;DHT22;10380;52.102;20.614;2023-02-14T16:49:30;4.80;99.90
20442;DHT22;10380;52.102;20.614;2023-02-14T16:51:58;4.80;99.90
20442;DHT22;10380;52.102;20.614;2023-02-14T16:54:26;4.70;99.90
20442;DHT22;10380;52.102;20.614;2023-02-14T16:56:56;4.80;99.90
20442;DHT22;10380;52.102;20.614;2023-02-14T16:59:25;4.70;99.90
20442;DHT22;10380;52.102;20.614;2023-02-14T17:01:52;4.80;99.90
20442;DHT22;10380;52.102;20.614;2023-02-14T17:04:19;4.80;99.90
20442;DHT22;10380;52.102;20.614;2023-02-14T17:06:51;4.80;99.90
20442;DHT22;10380;52.102;20.614;2023-02-14T17:09:24;4.70;99.90
20442;DHT22;10380;52.102;20.614;2023-02-14T17:11:55;4.70;99.90
20442;DHT22;10380;52.102;20.614;2023-02-14T17:14:29;4.70;99.90
20442;DHT22;10380;52.102;20.614;2023-02-14T17:16:58;4.70;99.90
20442;DHT22;10380;52.102;20.614;2023-02-14T17:19:25;4.70;99.90
20442;DHT22;10380;52.102;20.614;2023-02-14T17:21:56;4.60;99.90
20442;DHT22;10380;52.102;20.614;2023-02-14T17:24:23;4.70;99.90
20442;DHT22;10380;52.102;20.614;2023-02-14T17:26:50;4.70;99.90
20442;DHT22;10380;52.102;20.614;2023-02-14T17:29:16;4.70;99.90
20442;DHT22;10380;52.102;20.614;2023-02-14T17:31:43;4.70;99.90
20442;DHT22;10380;52.102;20.614;2023-02-14T17:34:10;4.70;99.90
20442;DHT22;10380;52.102;20.614;2023-02-14T17:36:37;4.70;99.90
20442;DHT22;10380;52.102;20.614;2023-02-14T17:39:04;4.70;99.90
20442;DHT22;10380;52.102;20.614;2023-02-14T17:41:31;4.70;99.90
20442;DHT22;10380;52.102;20.614;2023-02-14T17:43:58;4.70;99.90
20442;DHT22;10380;52.102;20.614;2023-02-14T17:46:30;4.70;99.90
20442;DHT22;10380;52.102;20.614;2023-02-14T17:48:57;4.60;99.90
20442;DHT22;10380;52.102;20.614;2023-02-14T17:51:24;4.60;99.90
20442;DHT22;10380;52.102;20.614;2023-02-14T17:53:51;4.60;99.90
20442;DHT22;10380;52.102;20.614;2023-02-14T17:56:22;4.70;99.90
20442;DHT22;10380;52.102;20.614;2023-02-14T17:58:51;4.70;99.90
20442;DHT22;10380;52.102;20.614;2023-02-14T18:01:22;4.60;99.90
20442;DHT22;10380;52.102;20.614;2023-02-14T18:03:49;4.70;99.90
20442;DHT22;10380;52.102;20.614;2023-02-14T18:06:19;4.70;99.90
20442;DHT22;10380;52.102;20.614;2023-02-14T18:08:48;4.70;99.90
20442;DHT22;10380;52.102;20.614;2023-02-14T18:11:17;4.60;99.90
20442;DHT22;10380;52.102;20.614;2023-02-14T18:13:44;4.60;99.90
20442;DHT22;10380;52.102;20.614;2023-02-14T18:16:13;4.60;99.90
20442;DHT22;10380;52.102;20.614;2023-02-14T18:18:40;4.60;99.90
20442;DHT22;10380;52.102;20.614;2023-02-14T18:21:10;4.70;99.90
20442;DHT22;10380;52.102;20.614;2023-02-14T18:23:37;4.70;99.90
20442;DHT22;10380;52.102;20.614;2023-02-14T18:26:10;4.60;99.90
20442;DHT22;10380;52.102;20.614;2023-02-14T18:28:37;4.60;99.90
20442;DHT22;10380;52.102;20.614;2023-02-14T18:31:06;4.60;99.90
20442;DHT22;10380;52.102;20.614;2023-02-14T18:33:35;4.60;99.90
20442;DHT22;10380;52.102;20.614;2023-02-14T18:36:04;4.60;99.90
20442;DHT22;10380;52.102;20.614;2023-02-14T18:38:33;4.60;99.90
20442;DHT22;10380;52.102;20.614;2023-02-14T18:41:02;4.60;99.90
20442;DHT22;10380;52.102;20.614;2023-02-14T18:43:29;4.60;99.90
20442;DHT22;10380;52.102;20.614;2023-02-14T18:46:04;4.60;99.90
20442;DHT22;10380;52.102;20.614;2023-02-14T18:48:31;4.60;99.90
20442;DHT22;10380;52.102;20.614;2023-02-14T18:51:05;4.60;99.90
20442;DHT22;10380;52.102;20.614;2023-02-14T18:53:32;4.60;99.90
20442;DHT22;10380;52.102;20.614;2023-02-14T18:56:02;4.60;99.90
20442;DHT22;10380;52.102;20.614;2023-02-14T18:58:29;4.70;99.90
20442;DHT22;10380;52.102;20.614;2023-02-14T19:00:56;4.60;99.90